sensor_id;sensor_type;location;lat;lon;timestamp;temperature;humidity
67769;DHT22;54569;52.018;5.584;2023-01-23T00:00:04;2.90;93.60
67769;DHT22;54569;52.018;5.584;2023-01-23T00:02:37;2.90;93.50
67769;DHT22;54569;52.018;5.584;2023-01-23T00:05:03;2.90;93.60
67769;DHT22;54569;52.018;5.584;2023-01-23T00:07:29;2.80;93.60
67769;DHT22;54569;52.018;5.584;2023-01-23T00:09:55;2.90;93.60
67769;DHT22;54569;52.018;5.584;2023-01-23T00:12:20;2.90;93.60
67769;DHT22;54569;52.018;5.584;2023-01-23T00:14:46;2.90;93.60
67769;DHT22;54569;52.018;5.584;2023-01-23T00:17:12;2.90;93.60
67769;DHT22;54569;52.018;5.584;2023-01-23T00:19:37;2.90;93.60
67769;DHT22;54569;52.018;5.584;2023-01-23T00:22:03;2.90;93.60
67769;DHT22;54569;52.018;5.584;2023-01-23T00:24:28;2.90;93.70
67769;DHT22;54569;52.018;5.584;2023-01-23T00:26:55;2.90;93.70
67769;DHT22;54569;52.018;5.584;2023-01-23T00:29:45;2.90;93.80
67769;DHT22;54569;52.018;5.584;2023-01-23T00:32:12;2.90;93.80
67769;DHT22;54569;52.018;5.584;2023-01-23T00:34:37;2.90;93.80
67769;DHT22;54569;52.018;5.584;2023-01-23T00:37:03;2.90;93.80
67769;DHT22;54569;52.018;5.584;2023-01-23T00:39:29;2.90;93.90
67769;DHT22;54569;52.018;5.584;2023-01-23T00:41:55;2.90;93.80
67769;DHT22;54569;52.018;5.584;2023-01-23T00:44:22;2.90;93.90
67769;DHT22;54569;52.018;5.584;2023-01-23T00:46:48;2.90;93.90
67769;DHT22;54569;52.018;5.584;2023-01-23T00:49:14;2.80;93.80
67769;DHT22;54569;52.018;5.584;2023-01-23T00:51:44;2.80;93.90
67769;DHT22;54569;52.018;5.584;2023-01-23T00:54:09;2.80;93.90
67769;DHT22;54569;52.018;5.584;2023-01-23T00:56:35;2.80;94.00
67769;DHT22;54569;52.018;5.584;2023-01-23T00:59:01;2.80;94.00
67769;DHT22;54569;52.018;5.584;2023-01-23T01:01:27;2.90;94.00
67769;DHT22;54569;52.018;5.584;2023-01-23T01:03:56;2.90;94.00
67769;DHT22;54569;52.018;5.584;2023-01-23T01:06:22;2.80;94.00
67769;DHT22;54569;52.018;5.584;2023-01-23T01:08:48;2.80;94.00
67769;DHT22;54569;52.018;5.584;2023-01-23T01:11:15;2.80;94.00
67769;DHT22;54569;52.018;5.584;2023-01-23T01:13:42;2.80;94.00
67769;DHT22;54569;52.018;5.584;2023-01-23T01:16:08;2.80;94.00
67769;DHT22;54569;52.018;5.584;2023-01-23T01:18:34;2.80;94.10
67769;DHT22;54569;52.018;5.584;2023-01-23T01:21:02;2.80;94.10
67769;DHT22;54569;52.018;5.584;2023-01-23T01:23:29;2.80;94.10
67769;DHT22;54569;52.018;5.584;2023-01-23T01:25:58;2.80;94.20
67769;DHT22;54569;52.018;5.584;2023-01-23T01:28:24;2.80;94.20
67769;DHT22;54569;52.018;5.584;2023-01-23T01:30:51;2.80;94.20
67769;DHT22;54569;52.018;5.584;2023-01-23T01:33:17;2.80;94.20
67769;DHT22;54569;52.018;5.584;2023-01-23T01:35:43;2.80;94.20
67769;DHT22;54569;52.018;5.584;2023-01-23T01:38:08;2.80;94.20
67769;DHT22;54569;52.018;5.584;2023-01-23T01:40:35;2.80;94.30
67769;DHT22;54569;52.018;5.584;2023-01-23T01:43:05;2.80;94.30
67769;DHT22;54569;52.018;5.584;2023-01-23T01:46:10;2.80;94.30
67769;DHT22;54569;52.018;5.584;2023-01-23T01:48:47;2.80;94.40
67769;DHT22;54569;52.018;5.584;2023-01-23T01:51:28;2.80;94.40
67769;DHT22;54569;52.018;5.584;2023-01-23T01:54:00;2.80;94.40
67769;DHT22;54569;52.018;5.584;2023-01-23T01:56:27;2.80;94.50
67769;DHT22;54569;52.018;5.584;2023-01-23T01:58:56;2.80;94.40
67769;DHT22;54569;52.018;5.584;2023-01-23T02:01:24;2.80;94.40
67769;DHT22;54569;52.018;5.584;2023-01-23T02:03:51;2.80;94.40
67769;DHT22;54569;52.018;5.584;2023-01-23T02:06:18;2.80;94.40
67769;DHT22;54569;52.018;5.584;2023-01-23T02:09:15;2.80;94.40
67769;DHT22;54569;52.018;5.584;2023-01-23T02:11:43;2.80;94.40
67769;DHT22;54569;52.018;5.584;2023-01-23T02:14:10;2.80;94.40
67769;DHT22;54569;52.018;5.584;2023-01-23T02:16:37;2.80;94.50
67769;DHT22;54569;52.018;5.584;2023-01-23T02:19:43;2.80;94.50
67769;DHT22;54569;52.018;5.584;2023-01-23T02:24:40;2.80;94.60
67769;DHT22;54569;52.018;5.584;2023-01-23T02:27:08;2.80;94.50
67769;DHT22;54569;52.018;5.584;2023-01-23T02:29:42;2.80;94.60
67769;DHT22;54569;52.018;5.584;2023-01-23T02:32:09;2.80;94.60
67769;DHT22;54569;52.018;5.584;2023-01-23T02:34:36;2.80;94.60
67769;DHT22;54569;52.018;5.584;2023-01-23T02:37:03;2.80;94.60
67769;DHT22;54569;52.018;5.584;2023-01-23T02:39:29;2.80;94.50
67769;DHT22;54569;52.018;5.584;2023-01-23T02:41:56;2.80;94.80
67769;DHT22;54569;52.018;5.584;2023-01-23T02:44:37;2.80;94.50
67769;DHT22;54569;52.018;5.584;2023-01-23T02:47:06;2.80;94.50
67769;DHT22;54569;52.018;5.584;2023-01-23T02:49:36;2.80;94.50
67769;DHT22;54569;52.018;5.584;2023-01-23T02:52:04;2.80;94.60
67769;DHT22;54569;52.018;5.584;2023-01-23T02:54:31;2.80;94.60
67769;DHT22;54569;52.018;5.584;2023-01-23T02:56:57;2.80;94.60
67769;DHT22;54569;52.018;5.584;2023-01-23T02:59:23;2.80;94.60
67769;DHT22;54569;52.018;5.584;2023-01-23T03:02:08;2.80;94.60
67769;DHT22;54569;52.018;5.584;2023-01-23T03:04:33;2.80;94.60
67769;DHT22;54569;52.018;5.584;2023-01-23T03:06:59;2.80;94.70
67769;DHT22;54569;52.018;5.584;2023-01-23T03:09:25;2.90;94.60
67769;DHT22;54569;52.018;5.584;2023-01-23T03:11:51;2.80;94.60
67769;DHT22;54569;52.018;5.584;2023-01-23T03:14:19;2.80;94.60
67769;DHT22;54569;52.018;5.584;2023-01-23T03:16:45;2.90;94.70
67769;DHT22;54569;52.018;5.584;2023-01-23T03:19:16;2.90;94.60
67769;DHT22;54569;52.018;5.584;2023-01-23T03:21:43;2.90;94.60
67769;DHT22;54569;52.018;5.584;2023-01-23T03:24:11;2.90;94.60
67769;DHT22;54569;52.018;5.584;2023-01-23T03:26:41;2.90;94.70
67769;DHT22;54569;52.018;5.584;2023-01-23T03:29:15;2.90;94.80
67769;DHT22;54569;52.018;5.584;2023-01-23T03:32:00;2.90;94.80
67769;DHT22;54569;52.018;5.584;2023-01-23T03:34:27;2.90;94.80
67769;DHT22;54569;52.018;5.584;2023-01-23T03:36:53;2.90;94.70
67769;DHT22;54569;52.018;5.584;2023-01-23T03:39:19;2.90;94.70
67769;DHT22;54569;52.018;5.584;2023-01-23T03:42:04;2.90;94.70
67769;DHT22;54569;52.018;5.584;2023-01-23T03:44:30;2.90;94.80
67769;DHT22;54569;52.018;5.584;2023-01-23T03:46:56;2.90;94.70
67769;DHT22;54569;52.018;5.584;2023-01-23T03:49:22;2.90;94.70
67769;DHT22;54569;52.018;5.584;2023-01-23T03:51:55;2.90;94.80
67769;DHT22;54569;52.018;5.584;2023-01-23T03:54:21;2.90;94.80
67769;DHT22;54569;52.018;5.584;2023-01-23T03:56:47;2.90;94.70
67769;DHT22;54569;52.018;5.584;2023-01-23T03:59:32;2.90;94.80
67769;DHT22;54569;52.018;5.584;2023-01-23T04:01:58;3.00;94.80
67769;DHT22;54569;52.018;5.584;2023-01-23T04:04:25;3.00;94.80
67769;DHT22;54569;52.018;5.584;2023-01-23T04:06:51;2.90;94.80
67769;DHT22;54569;52.018;5.584;2023-01-23T04:09:16;3.00;94.80
67769;DHT22;54569;52.018;5.584;2023-01-23T04:11:42;3.00;94.80
67769;DHT22;54569;52.018;5.584;2023-01-23T04:14:09;3.00;94.80
67769;DHT22;54569;52.018;5.584;2023-01-23T04:16:35;3.00;94.80
67769;DHT22;54569;52.018;5.584;2023-01-23T04:19:01;3.00;94.80
67769;DHT22;54569;52.018;5.584;2023-01-23T04:21:27;3.00;94.90
67769;DHT22;54569;52.018;5.584;2023-01-23T04:23:53;3.00;94.90
67769;DHT22;54569;52.018;5.584;2023-01-23T04:26:18;3.00;94.90
67769;DHT22;54569;52.018;5.584;2023-01-23T04:28:44;3.00;94.90
67769;DHT22;54569;52.018;5.584;2023-01-23T04:31:10;3.00;94.90
67769;DHT22;54569;52.018;5.584;2023-01-23T04:33:36;3.00;94.90
67769;DHT22;54569;52.018;5.584;2023-01-23T04:36:04;3.00;94.90
67769;DHT22;54569;52.018;5.584;2023-01-23T04:38:31;3.00;94.90
67769;DHT22;54569;52.018;5.584;2023-01-23T04:41:08;3.00;94.90
67769;DHT22;54569;52.018;5.584;2023-01-23T04:43:36;3.00;94.90
67769;DHT22;54569;52.018;5.584;2023-01-23T04:46:07;3.00;94.90
67769;DHT22;54569;52.018;5.584;2023-01-23T04:48:55;3.00;94.90
67769;DHT22;54569;52.018;5.584;2023-01-23T04:51:23;3.00;95.00
67769;DHT22;54569;52.018;5.584;2023-01-23T04:53:49;3.00;95.00
67769;DHT22;54569;52.018;5.584;2023-01-23T04:56:15;3.00;95.00
67769;DHT22;54569;52.018;5.584;2023-01-23T04:58:41;3.00;94.90
67769;DHT22;54569;52.018;5.584;2023-01-23T05:01:12;3.00;95.00
67769;DHT22;54569;52.018;5.584;2023-01-23T05:03:38;3.00;95.10
67769;DHT22;54569;52.018;5.584;2023-01-23T05:06:04;3.00;95.10
67769;DHT22;54569;52.018;5.584;2023-01-23T05:08:30;3.00;95.30
67769;DHT22;54569;52.018;5.584;2023-01-23T05:11:11;3.00;95.00
67769;DHT22;54569;52.018;5.584;2023-01-23T05:13:37;3.10;95.10
67769;DHT22;54569;52.018;5.584;2023-01-23T05:16:02;3.00;95.00
67769;DHT22;54569;52.018;5.584;2023-01-23T05:18:38;3.00;95.00
67769;DHT22;54569;52.018;5.584;2023-01-23T05:21:05;3.10;95.00
67769;DHT22;54569;52.018;5.584;2023-01-23T05:23:30;3.10;95.00
67769;DHT22;54569;52.018;5.584;2023-01-23T05:25:56;3.10;95.10
67769;DHT22;54569;52.018;5.584;2023-01-23T05:28:22;3.10;95.10
67769;DHT22;54569;52.018;5.584;2023-01-23T05:30:53;3.10;95.10
67769;DHT22;54569;52.018;5.584;2023-01-23T05:33:29;3.00;95.10
67769;DHT22;54569;52.018;5.584;2023-01-23T05:35:59;3.00;95.10
67769;DHT22;54569;52.018;5.584;2023-01-23T05:38:25;3.10;95.20
67769;DHT22;54569;52.018;5.584;2023-01-23T05:40:52;3.10;95.20
67769;DHT22;54569;52.018;5.584;2023-01-23T05:43:50;3.10;95.20
67769;DHT22;54569;52.018;5.584;2023-01-23T05:46:37;3.10;95.20
67769;DHT22;54569;52.018;5.584;2023-01-23T05:49:03;3.10;95.20
67769;DHT22;54569;52.018;5.584;2023-01-23T05:51:30;3.10;95.20
67769;DHT22;54569;52.018;5.584;2023-01-23T05:54:00;3.10;95.20
67769;DHT22;54569;52.018;5.584;2023-01-23T05:56:26;3.10;95.20
67769;DHT22;54569;52.018;5.584;2023-01-23T05:59:15;3.10;95.20
67769;DHT22;54569;52.018;5.584;2023-01-23T06:01:56;3.10;95.20
67769;DHT22;54569;52.018;5.584;2023-01-23T06:05:00;3.10;95.20
67769;DHT22;54569;52.018;5.584;2023-01-23T06:07:40;3.10;95.20
67769;DHT22;54569;52.018;5.584;2023-01-23T06:10:08;3.10;95.10
67769;DHT22;54569;52.018;5.584;2023-01-23T06:12:34;3.10;95.10
67769;DHT22;54569;52.018;5.584;2023-01-23T06:15:00;3.10;95.10
67769;DHT22;54569;52.018;5.584;2023-01-23T06:17:25;3.10;95.20
67769;DHT22;54569;52.018;5.584;2023-01-23T06:19:52;3.10;95.20
67769;DHT22;54569;52.018;5.584;2023-01-23T06:22:17;3.10;95.20
67769;DHT22;54569;52.018;5.584;2023-01-23T06:25:04;3.10;95.20
67769;DHT22;54569;52.018;5.584;2023-01-23T06:27:30;3.20;95.20
67769;DHT22;54569;52.018;5.584;2023-01-23T06:29:57;3.20;95.20
67769;DHT22;54569;52.018;5.584;2023-01-23T06:32:25;3.20;95.20
67769;DHT22;54569;52.018;5.584;2023-01-23T06:34:51;3.20;95.20
67769;DHT22;54569;52.018;5.584;2023-01-23T06:37:17;3.20;95.20
67769;DHT22;54569;52.018;5.584;2023-01-23T06:39:44;3.20;95.30
67769;DHT22;54569;52.018;5.584;2023-01-23T06:42:11;3.20;95.30
67769;DHT22;54569;52.018;5.584;2023-01-23T06:44:43;3.10;95.30
67769;DHT22;54569;52.018;5.584;2023-01-23T06:47:10;3.20;95.30
67769;DHT22;54569;52.018;5.584;2023-01-23T06:49:39;3.20;95.30
67769;DHT22;54569;52.018;5.584;2023-01-23T06:52:05;3.20;95.30
67769;DHT22;54569;52.018;5.584;2023-01-23T06:54:31;3.10;95.30
67769;DHT22;54569;52.018;5.584;2023-01-23T06:57:00;3.10;95.30
67769;DHT22;54569;52.018;5.584;2023-01-23T06:59:26;3.10;95.30
67769;DHT22;54569;52.018;5.584;2023-01-23T07:01:51;3.10;95.30
67769;DHT22;54569;52.018;5.584;2023-01-23T07:04:32;3.10;95.30
67769;DHT22;54569;52.018;5.584;2023-01-23T07:06:58;3.10;95.30
67769;DHT22;54569;52.018;5.584;2023-01-23T07:09:23;3.10;95.50
67769;DHT22;54569;52.018;5.584;2023-01-23T07:12:27;3.10;95.40
67769;DHT22;54569;52.018;5.584;2023-01-23T07:14:53;3.10;95.30
67769;DHT22;54569;52.018;5.584;2023-01-23T07:17:29;3.10;95.40
67769;DHT22;54569;52.018;5.584;2023-01-23T07:19:54;3.10;95.40
67769;DHT22;54569;52.018;5.584;2023-01-23T07:22:21;3.10;95.40
67769;DHT22;54569;52.018;5.584;2023-01-23T07:24:47;3.10;95.50
67769;DHT22;54569;52.018;5.584;2023-01-23T07:27:13;3.10;95.40
67769;DHT22;54569;52.018;5.584;2023-01-23T07:29:40;3.20;95.40
67769;DHT22;54569;52.018;5.584;2023-01-23T07:32:05;3.20;95.50
67769;DHT22;54569;52.018;5.584;2023-01-23T07:34:31;3.20;95.40
67769;DHT22;54569;52.018;5.584;2023-01-23T07:36:57;3.20;95.40
67769;DHT22;54569;52.018;5.584;2023-01-23T07:39:23;3.20;95.30
67769;DHT22;54569;52.018;5.584;2023-01-23T07:41:49;3.20;95.40
67769;DHT22;54569;52.018;5.584;2023-01-23T07:44:19;3.20;95.40
67769;DHT22;54569;52.018;5.584;2023-01-23T07:46:45;3.20;95.40
67769;DHT22;54569;52.018;5.584;2023-01-23T07:49:12;3.30;95.40
67769;DHT22;54569;52.018;5.584;2023-01-23T07:51:37;3.30;95.40
67769;DHT22;54569;52.018;5.584;2023-01-23T07:54:04;3.30;95.40
67769;DHT22;54569;52.018;5.584;2023-01-23T07:56:29;3.30;95.40
67769;DHT22;54569;52.018;5.584;2023-01-23T07:58:55;3.30;95.40
67769;DHT22;54569;52.018;5.584;2023-01-23T08:01:21;3.30;95.40
67769;DHT22;54569;52.018;5.584;2023-01-23T08:03:46;3.30;95.30
67769;DHT22;54569;52.018;5.584;2023-01-23T08:06:12;3.30;95.30
67769;DHT22;54569;52.018;5.584;2023-01-23T08:08:38;3.30;95.30
67769;DHT22;54569;52.018;5.584;2023-01-23T08:11:05;3.30;95.40
67769;DHT22;54569;52.018;5.584;2023-01-23T08:13:31;3.30;95.40
67769;DHT22;54569;52.018;5.584;2023-01-23T08:15:58;3.40;95.40
67769;DHT22;54569;52.018;5.584;2023-01-23T08:18:25;3.40;95.40
67769;DHT22;54569;52.018;5.584;2023-01-23T08:20:57;3.40;95.30
67769;DHT22;54569;52.018;5.584;2023-01-23T08:23:28;3.40;95.30
67769;DHT22;54569;52.018;5.584;2023-01-23T08:25:56;3.40;95.30
67769;DHT22;54569;52.018;5.584;2023-01-23T08:28:22;3.50;95.30
67769;DHT22;54569;52.018;5.584;2023-01-23T08:30:49;3.50;95.20
67769;DHT22;54569;52.018;5.584;2023-01-23T08:33:15;3.50;95.20
67769;DHT22;54569;52.018;5.584;2023-01-23T08:35:53;3.50;95.20
67769;DHT22;54569;52.018;5.584;2023-01-23T08:38:19;3.50;95.30
67769;DHT22;54569;52.018;5.584;2023-01-23T08:40:46;3.50;95.10
67769;DHT22;54569;52.018;5.584;2023-01-23T08:43:12;3.50;95.10
67769;DHT22;54569;52.018;5.584;2023-01-23T08:45:41;3.50;95.20
67769;DHT22;54569;52.018;5.584;2023-01-23T08:48:07;3.60;95.20
67769;DHT22;54569;52.018;5.584;2023-01-23T08:50:33;3.60;95.20
67769;DHT22;54569;52.018;5.584;2023-01-23T08:52:59;3.60;95.30
67769;DHT22;54569;52.018;5.584;2023-01-23T08:55:25;3.70;95.10
67769;DHT22;54569;52.018;5.584;2023-01-23T08:57:52;3.70;95.00
67769;DHT22;54569;52.018;5.584;2023-01-23T09:00:19;3.70;94.90
67769;DHT22;54569;52.018;5.584;2023-01-23T09:02:44;3.80;94.90
67769;DHT22;54569;52.018;5.584;2023-01-23T09:05:10;3.80;94.80
67769;DHT22;54569;52.018;5.584;2023-01-23T09:07:36;3.80;94.80
67769;DHT22;54569;52.018;5.584;2023-01-23T09:10:03;3.80;94.80
67769;DHT22;54569;52.018;5.584;2023-01-23T09:12:30;3.80;94.80
67769;DHT22;54569;52.018;5.584;2023-01-23T09:14:57;3.90;94.80
67769;DHT22;54569;52.018;5.584;2023-01-23T09:17:23;3.90;94.70
67769;DHT22;54569;52.018;5.584;2023-01-23T09:19:48;3.90;94.70
67769;DHT22;54569;52.018;5.584;2023-01-23T09:22:16;4.00;94.70
67769;DHT22;54569;52.018;5.584;2023-01-23T09:24:41;4.00;94.60
67769;DHT22;54569;52.018;5.584;2023-01-23T09:27:07;4.00;94.50
67769;DHT22;54569;52.018;5.584;2023-01-23T09:29:34;4.10;94.50
67769;DHT22;54569;52.018;5.584;2023-01-23T09:32:00;4.10;94.50
67769;DHT22;54569;52.018;5.584;2023-01-23T09:34:26;4.10;94.50
67769;DHT22;54569;52.018;5.584;2023-01-23T09:36:52;4.20;94.50
67769;DHT22;54569;52.018;5.584;2023-01-23T09:39:18;4.30;94.40
67769;DHT22;54569;52.018;5.584;2023-01-23T09:41:45;4.30;94.20
67769;DHT22;54569;52.018;5.584;2023-01-23T09:44:14;4.30;94.20
67769;DHT22;54569;52.018;5.584;2023-01-23T09:46:51;4.40;94.20
67769;DHT22;54569;52.018;5.584;2023-01-23T09:52:05;4.50;93.80
67769;DHT22;54569;52.018;5.584;2023-01-23T09:54:49;4.60;93.80
67769;DHT22;54569;52.018;5.584;2023-01-23T09:57:23;4.70;93.80
67769;DHT22;54569;52.018;5.584;2023-01-23T09:59:53;4.80;93.60
67769;DHT22;54569;52.018;5.584;2023-01-23T10:02:21;4.90;93.30
67769;DHT22;54569;52.018;5.584;2023-01-23T10:04:48;4.90;93.00
67769;DHT22;54569;52.018;5.584;2023-01-23T10:07:26;5.00;93.00
67769;DHT22;54569;52.018;5.584;2023-01-23T10:15:18;5.30;92.90
67769;DHT22;54569;52.018;5.584;2023-01-23T10:17:50;5.40;92.60
67769;DHT22;54569;52.018;5.584;2023-01-23T10:23:44;5.40;92.20
67769;DHT22;54569;52.018;5.584;2023-01-23T10:26:19;5.30;92.10
67769;DHT22;54569;52.018;5.584;2023-01-23T10:28:46;5.30;92.20
67769;DHT22;54569;52.018;5.584;2023-01-23T10:31:35;5.20;92.20
67769;DHT22;54569;52.018;5.584;2023-01-23T10:36:59;5.10;92.30
67769;DHT22;54569;52.018;5.584;2023-01-23T10:39:30;5.10;92.50
67769;DHT22;54569;52.018;5.584;2023-01-23T10:41:57;5.10;92.50
67769;DHT22;54569;52.018;5.584;2023-01-23T10:44:23;5.10;92.60
67769;DHT22;54569;52.018;5.584;2023-01-23T10:46:51;5.20;92.60
67769;DHT22;54569;52.018;5.584;2023-01-23T10:49:32;5.40;92.60
67769;DHT22;54569;52.018;5.584;2023-01-23T10:54:57;5.70;91.90
67769;DHT22;54569;52.018;5.584;2023-01-23T10:57:26;5.80;91.60
67769;DHT22;54569;52.018;5.584;2023-01-23T11:02:29;6.10;90.90
67769;DHT22;54569;52.018;5.584;2023-01-23T11:04:55;6.20;90.80
67769;DHT22;54569;52.018;5.584;2023-01-23T11:07:24;6.20;90.70
67769;DHT22;54569;52.018;5.584;2023-01-23T11:09:58;6.20;90.60
67769;DHT22;54569;52.018;5.584;2023-01-23T11:15:19;6.10;90.50
67769;DHT22;54569;52.018;5.584;2023-01-23T11:17:46;6.10;90.50
67769;DHT22;54569;52.018;5.584;2023-01-23T11:20:28;6.00;90.70
67769;DHT22;54569;52.018;5.584;2023-01-23T11:31:14;5.80;91.10
67769;DHT22;54569;52.018;5.584;2023-01-23T11:34:11;5.90;91.20
67769;DHT22;54569;52.018;5.584;2023-01-23T11:39:12;5.90;90.70
67769;DHT22;54569;52.018;5.584;2023-01-23T11:41:43;6.00;91.20
67769;DHT22;54569;52.018;5.584;2023-01-23T11:44:19;6.00;91.00
67769;DHT22;54569;52.018;5.584;2023-01-23T11:50:01;6.20;90.90
67769;DHT22;54569;52.018;5.584;2023-01-23T11:55:38;6.30;90.50
67769;DHT22;54569;52.018;5.584;2023-01-23T12:07:05;6.50;90.10
67769;DHT22;54569;52.018;5.584;2023-01-23T12:12:50;6.70;89.20
67769;DHT22;54569;52.018;5.584;2023-01-23T12:21:02;6.60;88.80
67769;DHT22;54569;52.018;5.584;2023-01-23T12:26:14;6.50;89.50
67769;DHT22;54569;52.018;5.584;2023-01-23T12:28:53;6.40;89.50
67769;DHT22;54569;52.018;5.584;2023-01-23T12:34:45;6.40;89.30
67769;DHT22;54569;52.018;5.584;2023-01-23T12:43:33;6.30;89.30
67769;DHT22;54569;52.018;5.584;2023-01-23T12:46:07;6.30;90.00
67769;DHT22;54569;52.018;5.584;2023-01-23T12:48:49;6.20;90.10
67769;DHT22;54569;52.018;5.584;2023-01-23T12:51:23;6.30;90.10
67769;DHT22;54569;52.018;5.584;2023-01-23T12:53:54;6.30;90.00
67769;DHT22;54569;52.018;5.584;2023-01-23T12:56:27;6.30;89.90
67769;DHT22;54569;52.018;5.584;2023-01-23T13:02:08;6.30;90.00
67769;DHT22;54569;52.018;5.584;2023-01-23T13:04:57;6.20;89.70
67769;DHT22;54569;52.018;5.584;2023-01-23T13:13:32;5.90;90.00
67769;DHT22;54569;52.018;5.584;2023-01-23T13:16:16;5.90;90.40
67769;DHT22;54569;52.018;5.584;2023-01-23T13:18:56;5.90;90.30
67769;DHT22;54569;52.018;5.584;2023-01-23T13:24:30;5.80;90.30
67769;DHT22;54569;52.018;5.584;2023-01-23T13:27:37;5.80;90.50
67769;DHT22;54569;52.018;5.584;2023-01-23T13:32:52;5.80;90.50
67769;DHT22;54569;52.018;5.584;2023-01-23T13:52:28;5.60;90.50
67769;DHT22;54569;52.018;5.584;2023-01-23T13:58:02;5.50;90.90
67769;DHT22;54569;52.018;5.584;2023-01-23T14:00:30;5.50;91.10
67769;DHT22;54569;52.018;5.584;2023-01-23T14:03:15;5.50;91.10
67769;DHT22;54569;52.018;5.584;2023-01-23T14:06:06;5.50;90.90
67769;DHT22;54569;52.018;5.584;2023-01-23T14:08:33;5.40;91.10
67769;DHT22;54569;52.018;5.584;2023-01-23T14:10:58;5.40;91.00
67769;DHT22;54569;52.018;5.584;2023-01-23T14:13:25;5.40;91.10
67769;DHT22;54569;52.018;5.584;2023-01-23T14:15:53;5.40;91.20
67769;DHT22;54569;52.018;5.584;2023-01-23T14:18:38;5.40;91.20
67769;DHT22;54569;52.018;5.584;2023-01-23T14:21:29;5.40;91.20
67769;DHT22;54569;52.018;5.584;2023-01-23T14:23:59;5.50;91.10
67769;DHT22;54569;52.018;5.584;2023-01-23T14:26:30;5.40;91.20
67769;DHT22;54569;52.018;5.584;2023-01-23T14:29:14;5.40;91.20
67769;DHT22;54569;52.018;5.584;2023-01-23T14:31:41;5.40;91.30
67769;DHT22;54569;52.018;5.584;2023-01-23T14:34:21;5.40;91.30
67769;DHT22;54569;52.018;5.584;2023-01-23T14:37:05;5.50;91.30
67769;DHT22;54569;52.018;5.584;2023-01-23T14:39:33;5.50;91.20
67769;DHT22;54569;52.018;5.584;2023-01-23T14:42:01;5.40;91.10
67769;DHT22;54569;52.018;5.584;2023-01-23T14:44:46;5.40;91.20
67769;DHT22;54569;52.018;5.584;2023-01-23T14:47:25;5.40;91.30
67769;DHT22;54569;52.018;5.584;2023-01-23T14:49:51;5.40;91.10
67769;DHT22;54569;52.018;5.584;2023-01-23T14:52:26;5.40;91.10
67769;DHT22;54569;52.018;5.584;2023-01-23T14:54:54;5.40;91.10
67769;DHT22;54569;52.018;5.584;2023-01-23T14:57:25;5.30;91.10
67769;DHT22;54569;52.018;5.584;2023-01-23T14:59:55;5.30;91.20
67769;DHT22;54569;52.018;5.584;2023-01-23T15:10:28;5.10;91.10
67769;DHT22;54569;52.018;5.584;2023-01-23T15:15:24;5.10;91.20
67769;DHT22;54569;52.018;5.584;2023-01-23T15:17:51;5.00;91.20
67769;DHT22;54569;52.018;5.584;2023-01-23T15:20:38;5.00;91.20
67769;DHT22;54569;52.018;5.584;2023-01-23T15:25:44;5.00;91.30
67769;DHT22;54569;52.018;5.584;2023-01-23T15:28:39;5.00;91.40
67769;DHT22;54569;52.018;5.584;2023-01-23T15:31:22;5.00;91.40
67769;DHT22;54569;52.018;5.584;2023-01-23T15:33:48;5.00;91.30
67769;DHT22;54569;52.018;5.584;2023-01-23T15:36:26;4.90;91.30
67769;DHT22;54569;52.018;5.584;2023-01-23T15:38:56;4.90;91.40
67769;DHT22;54569;52.018;5.584;2023-01-23T15:41:44;4.80;91.50
67769;DHT22;54569;52.018;5.584;2023-01-23T15:44:16;4.80;91.50
67769;DHT22;54569;52.018;5.584;2023-01-23T15:46:49;4.70;91.60
67769;DHT22;54569;52.018;5.584;2023-01-23T15:49:15;4.60;91.70
67769;DHT22;54569;52.018;5.584;2023-01-23T15:51:42;4.60;91.80
67769;DHT22;54569;52.018;5.584;2023-01-23T15:54:15;4.60;91.90
67769;DHT22;54569;52.018;5.584;2023-01-23T15:56:43;4.60;92.00
67769;DHT22;54569;52.018;5.584;2023-01-23T15:59:15;4.60;92.00
67769;DHT22;54569;52.018;5.584;2023-01-23T16:01:41;4.60;92.00
67769;DHT22;54569;52.018;5.584;2023-01-23T16:04:07;4.50;92.00
67769;DHT22;54569;52.018;5.584;2023-01-23T16:06:32;4.60;92.00
67769;DHT22;54569;52.018;5.584;2023-01-23T16:08:59;4.60;92.00
67769;DHT22;54569;52.018;5.584;2023-01-23T16:11:26;4.60;92.00
67769;DHT22;54569;52.018;5.584;2023-01-23T16:13:53;4.60;92.00
67769;DHT22;54569;52.018;5.584;2023-01-23T16:16:19;4.70;91.90
67769;DHT22;54569;52.018;5.584;2023-01-23T16:18:46;4.70;91.90
67769;DHT22;54569;52.018;5.584;2023-01-23T16:21:15;4.70;91.90
67769;DHT22;54569;52.018;5.584;2023-01-23T16:23:41;4.70;91.80
67769;DHT22;54569;52.018;5.584;2023-01-23T16:26:22;4.70;91.70
67769;DHT22;54569;52.018;5.584;2023-01-23T16:28:48;4.70;91.70
67769;DHT22;54569;52.018;5.584;2023-01-23T16:31:15;4.70;91.80
67769;DHT22;54569;52.018;5.584;2023-01-23T16:33:41;4.70;91.70
67769;DHT22;54569;52.018;5.584;2023-01-23T16:36:17;4.70;91.70
67769;DHT22;54569;52.018;5.584;2023-01-23T16:38:51;4.70;91.70
67769;DHT22;54569;52.018;5.584;2023-01-23T16:41:18;4.70;91.90
67769;DHT22;54569;52.018;5.584;2023-01-23T16:43:49;4.70;91.60
67769;DHT22;54569;52.018;5.584;2023-01-23T16:46:16;4.70;91.60
67769;DHT22;54569;52.018;5.584;2023-01-23T16:48:42;4.70;91.50
67769;DHT22;54569;52.018;5.584;2023-01-23T16:51:18;4.70;91.40
67769;DHT22;54569;52.018;5.584;2023-01-23T16:53:51;4.70;91.20
67769;DHT22;54569;52.018;5.584;2023-01-23T16:56:25;4.70;91.10
67769;DHT22;54569;52.018;5.584;2023-01-23T16:58:52;4.70;91.20
67769;DHT22;54569;52.018;5.584;2023-01-23T17:01:20;4.70;91.20
67769;DHT22;54569;52.018;5.584;2023-01-23T17:03:59;4.70;91.20
67769;DHT22;54569;52.018;5.584;2023-01-23T17:06:26;4.70;91.10
67769;DHT22;54569;52.018;5.584;2023-01-23T17:08:52;4.70;91.10
67769;DHT22;54569;52.018;5.584;2023-01-23T17:11:25;4.70;91.10
67769;DHT22;54569;52.018;5.584;2023-01-23T17:13:57;4.70;91.10
67769;DHT22;54569;52.018;5.584;2023-01-23T17:16:23;4.70;91.10
67769;DHT22;54569;52.018;5.584;2023-01-23T17:18:49;4.70;91.10
67769;DHT22;54569;52.018;5.584;2023-01-23T17:21:18;4.70;91.00
67769;DHT22;54569;52.018;5.584;2023-01-23T17:23:45;4.70;91.00
67769;DHT22;54569;52.018;5.584;2023-01-23T17:26:18;4.70;91.00
67769;DHT22;54569;52.018;5.584;2023-01-23T17:28:45;4.70;90.70
67769;DHT22;54569;52.018;5.584;2023-01-23T17:31:19;4.60;89.90
67769;DHT22;54569;52.018;5.584;2023-01-23T17:33:46;4.70;90.60
67769;DHT22;54569;52.018;5.584;2023-01-23T17:36:12;4.60;90.60
67769;DHT22;54569;52.018;5.584;2023-01-23T17:38:38;4.60;90.50
67769;DHT22;54569;52.018;5.584;2023-01-23T17:41:13;4.60;90.50
67769;DHT22;54569;52.018;5.584;2023-01-23T17:43:39;4.60;90.60
67769;DHT22;54569;52.018;5.584;2023-01-23T17:46:05;4.70;90.50
67769;DHT22;54569;52.018;5.584;2023-01-23T17:48:36;4.70;90.50
67769;DHT22;54569;52.018;5.584;2023-01-23T17:51:03;4.70;90.30
67769;DHT22;54569;52.018;5.584;2023-01-23T17:53:29;4.70;90.30
67769;DHT22;54569;52.018;5.584;2023-01-23T17:55:55;4.70;90.30
67769;DHT22;54569;52.018;5.584;2023-01-23T17:58:21;4.70;90.40
67769;DHT22;54569;52.018;5.584;2023-01-23T18:00:50;4.70;90.40
67769;DHT22;54569;52.018;5.584;2023-01-23T18:03:20;4.70;90.30